sensor_id;sensor_type;location;lat;lon;timestamp;temperature;humidity
64561;DHT22;50960;46.838;16.838;2023-07-29T01:43:12;21.10;99.90
64561;DHT22;50960;46.838;16.838;2023-07-29T01:45:39;20.70;99.90
64561;DHT22;50960;46.838;16.838;2023-07-29T01:48:07;20.70;99.90
64561;DHT22;50960;46.838;16.838;2023-07-29T01:50:34;20.60;99.90
64561;DHT22;50960;46.838;16.838;2023-07-29T01:53:00;20.60;99.90
64561;DHT22;50960;46.838;16.838;2023-07-29T01:55:27;20.60;99.90
64561;DHT22;50960;46.838;16.838;2023-07-29T01:57:53;20.50;99.90
64561;DHT22;50960;46.838;16.838;2023-07-29T02:00:19;20.40;99.90
64561;DHT22;50960;46.838;16.838;2023-07-29T02:02:46;20.40;99.90
64561;DHT22;50960;46.838;16.838;2023-07-29T02:05:12;20.30;99.90
64561;DHT22;50960;46.838;16.838;2023-07-29T02:07:39;20.20;99.90
64561;DHT22;50960;46.838;16.838;2023-07-29T02:10:05;20.20;99.90
64561;DHT22;50960;46.838;16.838;2023-07-29T02:12:32;20.10;99.90
64561;DHT22;50960;46.838;16.838;2023-07-29T02:14:58;20.10;99.90
64561;DHT22;50960;46.838;16.838;2023-07-29T02:17:24;20.10;99.90
64561;DHT22;50960;46.838;16.838;2023-07-29T02:19:52;20.00;99.90
64561;DHT22;50960;46.838;16.838;2023-07-29T02:22:18;19.90;99.90
64561;DHT22;50960;46.838;16.838;2023-07-29T02:24:45;19.80;99.90
64561;DHT22;50960;46.838;16.838;2023-07-29T02:27:11;19.90;99.90
64561;DHT22;50960;46.838;16.838;2023-07-29T02:29:38;19.90;99.90
64561;DHT22;50960;46.838;16.838;2023-07-29T02:32:04;20.00;99.90
64561;DHT22;50960;46.838;16.838;2023-07-29T02:34:31;20.00;99.90
64561;DHT22;50960;46.838;16.838;2023-07-29T02:36:57;20.00;99.90
64561;DHT22;50960;46.838;16.838;2023-07-29T02:39:24;20.00;99.90
64561;DHT22;50960;46.838;16.838;2023-07-29T02:41:50;20.00;99.90
64561;DHT22;50960;46.838;16.838;2023-07-29T02:44:17;20.00;99.90
64561;DHT22;50960;46.838;16.838;2023-07-29T02:46:45;20.00;99.90
64561;DHT22;50960;46.838;16.838;2023-07-29T02:49:11;20.00;99.90
64561;DHT22;50960;46.838;16.838;2023-07-29T02:51:38;20.00;99.90
64561;DHT22;50960;46.838;16.838;2023-07-29T02:54:04;19.90;99.90
64561;DHT22;50960;46.838;16.838;2023-07-29T02:56:31;19.90;99.90
64561;DHT22;50960;46.838;16.838;2023-07-29T02:58:57;19.90;99.90
64561;DHT22;50960;46.838;16.838;2023-07-29T03:01:24;19.90;99.90
64561;DHT22;50960;46.838;16.838;2023-07-29T03:03:53;19.90;99.90
64561;DHT22;50960;46.838;16.838;2023-07-29T03:06:19;19.90;99.90
64561;DHT22;50960;46.838;16.838;2023-07-29T03:08:45;19.80;99.90
64561;DHT22;50960;46.838;16.838;2023-07-29T03:11:13;19.80;99.90
64561;DHT22;50960;46.838;16.838;2023-07-29T03:13:40;19.80;99.90
64561;DHT22;50960;46.838;16.838;2023-07-29T03:16:12;19.90;99.90
64561;DHT22;50960;46.838;16.838;2023-07-29T03:18:39;19.90;99.90
64561;DHT22;50960;46.838;16.838;2023-07-29T03:21:06;19.80;99.90
64561;DHT22;50960;46.838;16.838;2023-07-29T03:23:33;19.70;99.90
64561;DHT22;50960;46.838;16.838;2023-07-29T03:26:02;19.70;99.90
64561;DHT22;50960;46.838;16.838;2023-07-29T03:28:45;19.70;99.90
64561;DHT22;50960;46.838;16.838;2023-07-29T03:31:12;19.70;99.90
64561;DHT22;50960;46.838;16.838;2023-07-29T03:33:38;19.60;99.90
64561;DHT22;50960;46.838;16.838;2023-07-29T03:36:05;19.60;99.90
64561;DHT22;50960;46.838;16.838;2023-07-29T03:38:31;19.60;99.90
64561;DHT22;50960;46.838;16.838;2023-07-29T03:40:59;19.60;99.90
64561;DHT22;50960;46.838;16.838;2023-07-29T03:43:25;19.50;99.90
64561;DHT22;50960;46.838;16.838;2023-07-29T03:45:51;19.50;99.90
64561;DHT22;50960;46.838;16.838;2023-07-29T03:48:18;19.50;99.90
64561;DHT22;50960;46.838;16.838;2023-07-29T03:50:44;19.50;99.90
64561;DHT22;50960;46.838;16.838;2023-07-29T03:53:10;19.50;99.90
64561;DHT22;50960;46.838;16.838;2023-07-29T03:55:37;19.50;99.90
64561;DHT22;50960;46.838;16.838;2023-07-29T03:58:03;19.50;99.90
64561;DHT22;50960;46.838;16.838;2023-07-29T04:00:30;19.50;99.90
64561;DHT22;50960;46.838;16.838;2023-07-29T04:02:56;19.50;99.90
64561;DHT22;50960;46.838;16.838;2023-07-29T04:05:22;19.50;99.90
64561;DHT22;50960;46.838;16.838;2023-07-29T04:07:49;19.50;99.90
64561;DHT22;50960;46.838;16.838;2023-07-29T04:10:15;19.40;99.90
64561;DHT22;50960;46.838;16.838;2023-07-29T04:12:43;19.40;99.90
64561;DHT22;50960;46.838;16.838;2023-07-29T04:15:09;19.40;99.90
64561;DHT22;50960;46.838;16.838;2023-07-29T04:17:36;19.40;99.90
64561;DHT22;50960;46.838;16.838;2023-07-29T04:20:03;19.50;99.90
64561;DHT22;50960;46.838;16.838;2023-07-29T04:22:29;19.60;99.90
64561;DHT22;50960;46.838;16.838;2023-07-29T04:24:55;19.70;99.90
64561;DHT22;50960;46.838;16.838;2023-07-29T04:27:23;19.70;99.90
64561;DHT22;50960;46.838;16.838;2023-07-29T04:29:49;19.80;99.90
64561;DHT22;50960;46.838;16.838;2023-07-29T04:32:15;19.90;99.90
64561;DHT22;50960;46.838;16.838;2023-07-29T04:34:42;20.00;99.90
64561;DHT22;50960;46.838;16.838;2023-07-29T04:37:08;20.00;99.90
64561;DHT22;50960;46.838;16.838;2023-07-29T04:39:34;20.10;99.90
64561;DHT22;50960;46.838;16.838;2023-07-29T04:42:01;20.20;99.90
64561;DHT22;50960;46.838;16.838;2023-07-29T04:44:28;20.20;99.90
64561;DHT22;50960;46.838;16.838;2023-07-29T04:46:54;20.30;99.90
64561;DHT22;50960;46.838;16.838;2023-07-29T04:49:22;20.40;99.90
64561;DHT22;50960;46.838;16.838;2023-07-29T04:51:48;20.40;99.90
64561;DHT22;50960;46.838;16.838;2023-07-29T04:54:14;20.50;99.90
64561;DHT22;50960;46.838;16.838;2023-07-29T04:56:41;20.50;99.90
64561;DHT22;50960;46.838;16.838;2023-07-29T04:59:07;20.60;99.90
64561;DHT22;50960;46.838;16.838;2023-07-29T05:01:34;20.70;99.90
64561;DHT22;50960;46.838;16.838;2023-07-29T05:04:01;20.80;99.90
64561;DHT22;50960;46.838;16.838;2023-07-29T05:06:27;20.90;99.90
64561;DHT22;50960;46.838;16.838;2023-07-29T05:08:57;21.00;99.90
64561;DHT22;50960;46.838;16.838;2023-07-29T05:11:23;21.00;99.90
64561;DHT22;50960;46.838;16.838;2023-07-29T05:13:51;21.00;99.90
64561;DHT22;50960;46.838;16.838;2023-07-29T05:16:17;21.00;99.90
64561;DHT22;50960;46.838;16.838;2023-07-29T05:18:44;21.00;99.90
64561;DHT22;50960;46.838;16.838;2023-07-29T05:21:10;21.10;99.90
64561;DHT22;50960;46.838;16.838;2023-07-29T05:23:40;21.00;99.90
64561;DHT22;50960;46.838;16.838;2023-07-29T05:26:08;21.00;99.90
64561;DHT22;50960;46.838;16.838;2023-07-29T05:28:34;21.00;99.90
64561;DHT22;50960;46.838;16.838;2023-07-29T05:31:01;21.00;99.90
64561;DHT22;50960;46.838;16.838;2023-07-29T05:33:28;21.00;99.90
64561;DHT22;50960;46.838;16.838;2023-07-29T05:35:54;21.10;99.90
64561;DHT22;50960;46.838;16.838;2023-07-29T05:38:21;21.20;99.90
64561;DHT22;50960;46.838;16.838;2023-07-29T05:40:48;21.20;99.90
64561;DHT22;50960;46.838;16.838;2023-07-29T05:43:15;21.20;99.90
64561;DHT22;50960;46.838;16.838;2023-07-29T05:45:41;21.30;99.90
64561;DHT22;50960;46.838;16.838;2023-07-29T05:48:08;21.30;99.90
64561;DHT22;50960;46.838;16.838;2023-07-29T05:50:34;21.40;99.90
64561;DHT22;50960;46.838;16.838;2023-07-29T05:53:00;21.40;99.90
64561;DHT22;50960;46.838;16.838;2023-07-29T05:55:27;21.50;99.90
64561;DHT22;50960;46.838;16.838;2023-07-29T05:57:53;21.40;99.90
64561;DHT22;50960;46.838;16.838;2023-07-29T06:00:21;21.40;99.90
64561;DHT22;50960;46.838;16.838;2023-07-29T06:02:47;21.50;99.90
64561;DHT22;50960;46.838;16.838;2023-07-29T06:05:15;21.40;99.90
64561;DHT22;50960;46.838;16.838;2023-07-29T06:07:41;21.30;99.90
64561;DHT22;50960;46.838;16.838;2023-07-29T06:10:13;21.40;99.90
64561;DHT22;50960;46.838;16.838;2023-07-29T06:12:40;21.50;99.90
64561;DHT22;50960;46.838;16.838;2023-07-29T06:15:07;21.60;99.90
64561;DHT22;50960;46.838;16.838;2023-07-29T06:17:33;21.80;99.90
64561;DHT22;50960;46.838;16.838;2023-07-29T06:20:00;21.90;99.90
64561;DHT22;50960;46.838;16.838;2023-07-29T06:22:26;21.90;99.90
64561;DHT22;50960;46.838;16.838;2023-07-29T06:24:52;22.00;99.90
64561;DHT22;50960;46.838;16.838;2023-07-29T06:27:20;22.00;99.90
64561;DHT22;50960;46.838;16.838;2023-07-29T06:29:47;22.10;99.90
64561;DHT22;50960;46.838;16.838;2023-07-29T06:32:13;22.20;99.90
64561;DHT22;50960;46.838;16.838;2023-07-29T06:34:39;22.20;99.90
64561;DHT22;50960;46.838;16.838;2023-07-29T06:37:06;22.30;99.90
64561;DHT22;50960;46.838;16.838;2023-07-29T06:39:33;22.40;99.90
64561;DHT22;50960;46.838;16.838;2023-07-29T06:41:59;22.30;99.90
64561;DHT22;50960;46.838;16.838;2023-07-29T06:44:26;22.40;99.90
64561;DHT22;50960;46.838;16.838;2023-07-29T06:46:52;22.50;99.90
64561;DHT22;50960;46.838;16.838;2023-07-29T06:49:19;22.60;99.90
64561;DHT22;50960;46.838;16.838;2023-07-29T06:51:45;22.70;99.90
64561;DHT22;50960;46.838;16.838;2023-07-29T06:54:12;22.80;99.90
64561;DHT22;50960;46.838;16.838;2023-07-29T06:56:38;22.80;99.90
64561;DHT22;50960;46.838;16.838;2023-07-29T06:59:04;22.90;99.90
64561;DHT22;50960;46.838;16.838;2023-07-29T07:01:31;23.00;99.90
64561;DHT22;50960;46.838;16.838;2023-07-29T07:03:57;23.00;99.90
64561;DHT22;50960;46.838;16.838;2023-07-29T07:06:24;23.10;99.90
64561;DHT22;50960;46.838;16.838;2023-07-29T07:08:51;23.20;99.90
64561;DHT22;50960;46.838;16.838;2023-07-29T07:11:18;23.30;99.90
64561;DHT22;50960;46.838;16.838;2023-07-29T07:13:45;23.40;99.90
64561;DHT22;50960;46.838;16.838;2023-07-29T07:16:11;23.40;99.90
64561;DHT22;50960;46.838;16.838;2023-07-29T07:18:38;23.50;99.90
64561;DHT22;50960;46.838;16.838;2023-07-29T07:21:04;23.50;99.90
64561;DHT22;50960;46.838;16.838;2023-07-29T07:23:31;23.60;99.90
64561;DHT22;50960;46.838;16.838;2023-07-29T07:25:57;23.70;99.90
64561;DHT22;50960;46.838;16.838;2023-07-29T07:28:24;23.70;99.90
64561;DHT22;50960;46.838;16.838;2023-07-29T07:30:51;23.80;99.90
64561;DHT22;50960;46.838;16.838;2023-07-29T07:33:17;23.90;99.90
64561;DHT22;50960;46.838;16.838;2023-07-29T07:35:44;24.00;99.90
64561;DHT22;50960;46.838;16.838;2023-07-29T07:38:10;24.10;99.70
64561;DHT22;50960;46.838;16.838;2023-07-29T07:40:37;24.40;99.50
64561;DHT22;50960;46.838;16.838;2023-07-29T07:43:04;24.60;98.60
64561;DHT22;50960;46.838;16.838;2023-07-29T07:45:32;24.70;98.10
64561;DHT22;50960;46.838;16.838;2023-07-29T07:47:58;25.00;97.10
64561;DHT22;50960;46.838;16.838;2023-07-29T07:50:25;25.30;96.50
64561;DHT22;50960;46.838;16.838;2023-07-29T07:52:51;25.80;96.00
64561;DHT22;50960;46.838;16.838;2023-07-29T07:55:18;25.90;94.90
64561;DHT22;50960;46.838;16.838;2023-07-29T07:57:44;26.30;94.10
64561;DHT22;50960;46.838;16.838;2023-07-29T08:00:12;26.50;93.30
64561;DHT22;50960;46.838;16.838;2023-07-29T08:02:41;26.60;92.50
64561;DHT22;50960;46.838;16.838;2023-07-29T08:05:07;26.80;92.70
64561;DHT22;50960;46.838;16.838;2023-07-29T08:07:34;27.10;90.70
64561;DHT22;50960;46.838;16.838;2023-07-29T08:10:01;27.20;88.40
64561;DHT22;50960;46.838;16.838;2023-07-29T08:12:27;27.20;86.10
64561;DHT22;50960;46.838;16.838;2023-07-29T08:14:53;27.20;79.80
64561;DHT22;50960;46.838;16.838;2023-07-29T08:17:20;27.20;76.50
64561;DHT22;50960;46.838;16.838;2023-07-29T08:19:46;27.40;77.20
64561;DHT22;50960;46.838;16.838;2023-07-29T08:22:13;27.40;69.00
64561;DHT22;50960;46.838;16.838;2023-07-29T08:24:39;27.40;67.60
64561;DHT22;50960;46.838;16.838;2023-07-29T08:27:06;27.30;68.80
64561;DHT22;50960;46.838;16.838;2023-07-29T08:29:32;27.40;69.00
64561;DHT22;50960;46.838;16.838;2023-07-29T08:31:59;27.50;67.70
64561;DHT22;50960;46.838;16.838;2023-07-29T08:34:25;27.30;70.20
64561;DHT22;50960;46.838;16.838;2023-07-29T08:36:51;27.10;71.20
64561;DHT22;50960;46.838;16.838;2023-07-29T08:39:18;27.00;72.70
64561;DHT22;50960;46.838;16.838;2023-07-29T08:42:07;26.70;75.90
64561;DHT22;50960;46.838;16.838;2023-07-29T08:44:38;26.50;79.50
64561;DHT22;50960;46.838;16.838;2023-07-29T08:47:06;26.40;81.40
64561;DHT22;50960;46.838;16.838;2023-07-29T08:49:33;26.30;81.80
64561;DHT22;50960;46.838;16.838;2023-07-29T08:52:01;26.30;83.80
64561;DHT22;50960;46.838;16.838;2023-07-29T08:54:27;26.20;84.90
64561;DHT22;50960;46.838;16.838;2023-07-29T08:56:54;26.30;86.80
64561;DHT22;50960;46.838;16.838;2023-07-29T08:59:21;26.20;86.60
64561;DHT22;50960;46.838;16.838;2023-07-29T09:01:47;26.20;86.50
64561;DHT22;50960;46.838;16.838;2023-07-29T09:04:15;26.10;89.60
64561;DHT22;50960;46.838;16.838;2023-07-29T09:06:43;26.10;89.70
64561;DHT22;50960;46.838;16.838;2023-07-29T09:09:10;26.10;88.00
64561;DHT22;50960;46.838;16.838;2023-07-29T09:11:36;26.10;87.10
64561;DHT22;50960;46.838;16.838;2023-07-29T09:14:03;26.10;87.50
64561;DHT22;50960;46.838;16.838;2023-07-29T09:16:29;26.10;87.70
64561;DHT22;50960;46.838;16.838;2023-07-29T09:18:56;26.20;88.60
64561;DHT22;50960;46.838;16.838;2023-07-29T09:21:27;26.20;89.10
64561;DHT22;50960;46.838;16.838;2023-07-29T09:23:55;26.20;86.10
64561;DHT22;50960;46.838;16.838;2023-07-29T09:26:28;26.20;85.70
64561;DHT22;50960;46.838;16.838;2023-07-29T09:28:59;26.20;86.30
64561;DHT22;50960;46.838;16.838;2023-07-29T09:31:27;26.30;85.20
64561;DHT22;50960;46.838;16.838;2023-07-29T09:33:59;26.40;86.70
64561;DHT22;50960;46.838;16.838;2023-07-29T09:36:27;26.40;87.10
64561;DHT22;50960;46.838;16.838;2023-07-29T09:38:54;26.50;87.60
64561;DHT22;50960;46.838;16.838;2023-07-29T09:41:29;26.50;82.50
64561;DHT22;50960;46.838;16.838;2023-07-29T09:43:58;26.60;81.40
64561;DHT22;50960;46.838;16.838;2023-07-29T09:46:26;26.70;83.00
64561;DHT22;50960;46.838;16.838;2023-07-29T09:48:57;26.80;77.70
64561;DHT22;50960;46.838;16.838;2023-07-29T09:51:24;26.80;78.40
64561;DHT22;50960;46.838;16.838;2023-07-29T09:53:51;26.80;79.20
64561;DHT22;50960;46.838;16.838;2023-07-29T09:56:25;26.70;71.90
64561;DHT22;50960;46.838;16.838;2023-07-29T09:58:53;26.80;74.60
64561;DHT22;50960;46.838;16.838;2023-07-29T10:01:21;26.90;71.50
64561;DHT22;50960;46.838;16.838;2023-07-29T10:03:48;26.80;71.90
64561;DHT22;50960;46.838;16.838;2023-07-29T10:06:15;26.80;67.80
64561;DHT22;50960;46.838;16.838;2023-07-29T10:08:43;26.90;68.60
64561;DHT22;50960;46.838;16.838;2023-07-29T10:11:11;26.90;66.00
64561;DHT22;50960;46.838;16.838;2023-07-29T10:13:39;27.00;66.50
64561;DHT22;50960;46.838;16.838;2023-07-29T10:16:06;27.10;69.50
64561;DHT22;50960;46.838;16.838;2023-07-29T10:18:35;27.00;66.80
64561;DHT22;50960;46.838;16.838;2023-07-29T10:21:03;27.10;63.20
64561;DHT22;50960;46.838;16.838;2023-07-29T10:23:43;27.00;61.90
64561;DHT22;50960;46.838;16.838;2023-07-29T10:26:14;27.00;64.00
64561;DHT22;50960;46.838;16.838;2023-07-29T10:28:47;26.90;61.90
64561;DHT22;50960;46.838;16.838;2023-07-29T10:31:16;26.90;61.90
64561;DHT22;50960;46.838;16.838;2023-07-29T10:33:46;27.00;61.60
64561;DHT22;50960;46.838;16.838;2023-07-29T10:36:15;27.00;61.30
64561;DHT22;50960;46.838;16.838;2023-07-29T10:38:41;27.20;61.80
64561;DHT22;50960;46.838;16.838;2023-07-29T10:41:08;27.10;60.40
64561;DHT22;50960;46.838;16.838;2023-07-29T10:43:36;27.10;60.10
64561;DHT22;50960;46.838;16.838;2023-07-29T10:46:20;27.10;59.40
64561;DHT22;50960;46.838;16.838;2023-07-29T10:51:30;27.20;60.80
64561;DHT22;50960;46.838;16.838;2023-07-29T10:54:03;27.20;61.90
64561;DHT22;50960;46.838;16.838;2023-07-29T10:56:32;27.30;59.70
64561;DHT22;50960;46.838;16.838;2023-07-29T11:01:57;27.40;59.00
64561;DHT22;50960;46.838;16.838;2023-07-29T11:04:24;27.40;59.30
64561;DHT22;50960;46.838;16.838;2023-07-29T11:12:40;27.50;60.30
64561;DHT22;50960;46.838;16.838;2023-07-29T11:17:47;27.80;59.80
64561;DHT22;50960;46.838;16.838;2023-07-29T11:20:16;27.90;59.20
64561;DHT22;50960;46.838;16.838;2023-07-29T11:22:43;28.00;61.30
64561;DHT22;50960;46.838;16.838;2023-07-29T11:25:11;28.10;59.90
64561;DHT22;50960;46.838;16.838;2023-07-29T11:27:38;28.30;59.50
64561;DHT22;50960;46.838;16.838;2023-07-29T11:30:08;28.40;58.30
64561;DHT22;50960;46.838;16.838;2023-07-29T11:32:35;28.50;57.30
64561;DHT22;50960;46.838;16.838;2023-07-29T11:35:03;28.60;57.10
64561;DHT22;50960;46.838;16.838;2023-07-29T11:37:30;28.70;56.40
64561;DHT22;50960;46.838;16.838;2023-07-29T11:39:56;28.80;56.20
64561;DHT22;50960;46.838;16.838;2023-07-29T11:42:24;29.00;56.30
64561;DHT22;50960;46.838;16.838;2023-07-29T11:47:23;29.40;54.30
64561;DHT22;50960;46.838;16.838;2023-07-29T11:49:49;29.20;54.70
64561;DHT22;50960;46.838;16.838;2023-07-29T11:52:15;29.50;56.00
64561;DHT22;50960;46.838;16.838;2023-07-29T11:54:47;29.80;55.90
64561;DHT22;50960;46.838;16.838;2023-07-29T11:57:16;30.10;54.60
64561;DHT22;50960;46.838;16.838;2023-07-29T11:59:42;29.80;54.90
64561;DHT22;50960;46.838;16.838;2023-07-29T12:02:14;30.10;55.50
64561;DHT22;50960;46.838;16.838;2023-07-29T12:04:43;30.60;54.40
64561;DHT22;50960;46.838;16.838;2023-07-29T12:07:10;30.90;54.20
64561;DHT22;50960;46.838;16.838;2023-07-29T12:09:37;30.90;53.30
64561;DHT22;50960;46.838;16.838;2023-07-29T12:12:04;30.70;51.90
64561;DHT22;50960;46.838;16.838;2023-07-29T12:14:31;30.70;53.30
64561;DHT22;50960;46.838;16.838;2023-07-29T12:17:02;31.10;52.80
64561;DHT22;50960;46.838;16.838;2023-07-29T12:19:37;30.80;52.00
64561;DHT22;50960;46.838;16.838;2023-07-29T12:22:05;31.00;49.90
64561;DHT22;50960;46.838;16.838;2023-07-29T12:24:34;31.10;49.50
64561;DHT22;50960;46.838;16.838;2023-07-29T12:27:01;31.50;48.40
64561;DHT22;50960;46.838;16.838;2023-07-29T12:29:29;31.80;48.10
64561;DHT22;50960;46.838;16.838;2023-07-29T12:32:01;31.70;48.10
64561;DHT22;50960;46.838;16.838;2023-07-29T12:34:30;31.90;48.30
64561;DHT22;50960;46.838;16.838;2023-07-29T12:36:58;31.80;47.40
64561;DHT22;50960;46.838;16.838;2023-07-29T12:39:30;32.10;47.30
64561;DHT22;50960;46.838;16.838;2023-07-29T12:41:57;32.50;46.60
64561;DHT22;50960;46.838;16.838;2023-07-29T12:44:29;32.50;46.60
64561;DHT22;50960;46.838;16.838;2023-07-29T12:46:55;33.40;46.40
64561;DHT22;50960;46.838;16.838;2023-07-29T12:49:22;33.90;44.30
64561;DHT22;50960;46.838;16.838;2023-07-29T12:51:49;34.40;44.20
64561;DHT22;50960;46.838;16.838;2023-07-29T12:54:15;34.80;42.00
64561;DHT22;50960;46.838;16.838;2023-07-29T12:56:41;35.10;42.10
64561;DHT22;50960;46.838;16.838;2023-07-29T12:59:08;35.40;42.30
64561;DHT22;50960;46.838;16.838;2023-07-29T13:01:34;35.60;41.70
64561;DHT22;50960;46.838;16.838;2023-07-29T13:04:01;35.30;41.00
64561;DHT22;50960;46.838;16.838;2023-07-29T13:06:28;35.90;40.90
64561;DHT22;50960;46.838;16.838;2023-07-29T13:08:54;35.70;41.00
64561;DHT22;50960;46.838;16.838;2023-07-29T13:11:21;36.40;40.00
64561;DHT22;50960;46.838;16.838;2023-07-29T13:13:47;36.60;39.20
64561;DHT22;50960;46.838;16.838;2023-07-29T13:16:14;34.40;40.80
64561;DHT22;50960;46.838;16.838;2023-07-29T13:18:40;36.00;40.30
64561;DHT22;50960;46.838;16.838;2023-07-29T13:21:07;36.60;40.20
64561;DHT22;50960;46.838;16.838;2023-07-29T13:23:33;37.00;39.20
64561;DHT22;50960;46.838;16.838;2023-07-29T13:26:01;37.00;39.20
64561;DHT22;50960;46.838;16.838;2023-07-29T13:28:27;37.10;39.00
64561;DHT22;50960;46.838;16.838;2023-07-29T13:30:54;36.80;39.00
64561;DHT22;50960;46.838;16.838;2023-07-29T13:35:47;37.60;37.70
64561;DHT22;50960;46.838;16.838;2023-07-29T13:38:13;37.60;38.10
64561;DHT22;50960;46.838;16.838;2023-07-29T13:40:40;38.40;36.90
64561;DHT22;50960;46.838;16.838;2023-07-29T13:43:06;39.00;37.20
64561;DHT22;50960;46.838;16.838;2023-07-29T13:45:34;40.40;36.70
64561;DHT22;50960;46.838;16.838;2023-07-29T13:48:00;42.60;35.20
64561;DHT22;50960;46.838;16.838;2023-07-29T13:50:27;43.20;32.50
64561;DHT22;50960;46.838;16.838;2023-07-29T13:52:53;48.20;31.40
64561;DHT22;50960;46.838;16.838;2023-07-29T13:55:20;48.40;28.30
64561;DHT22;50960;46.838;16.838;2023-07-29T13:57:46;47.40;28.90
64561;DHT22;50960;46.838;16.838;2023-07-29T14:00:14;49.80;26.60
64561;DHT22;50960;46.838;16.838;2023-07-29T14:02:41;45.20;24.30
64561;DHT22;50960;46.838;16.838;2023-07-29T14:05:07;43.70;26.70
64561;DHT22;50960;46.838;16.838;2023-07-29T14:07:35;45.60;26.20
64561;DHT22;50960;46.838;16.838;2023-07-29T14:10:09;46.50;27.20
64561;DHT22;50960;46.838;16.838;2023-07-29T14:12:36;48.40;26.90
64561;DHT22;50960;46.838;16.838;2023-07-29T14:15:04;52.00;25.30
64561;DHT22;50960;46.838;16.838;2023-07-29T14:17:31;52.30;25.20
64561;DHT22;50960;46.838;16.838;2023-07-29T14:19:58;53.30;23.60
64561;DHT22;50960;46.838;16.838;2023-07-29T14:22:24;52.40;23.30
64561;DHT22;50960;46.838;16.838;2023-07-29T14:24:51;51.90;24.30
64561;DHT22;50960;46.838;16.838;2023-07-29T14:27:17;49.40;24.70
64561;DHT22;50960;46.838;16.838;2023-07-29T14:29:43;49.40;24.80
64561;DHT22;50960;46.838;16.838;2023-07-29T14:32:10;49.40;25.40
64561;DHT22;50960;46.838;16.838;2023-07-29T14:34:36;48.10;25.40
64561;DHT22;50960;46.838;16.838;2023-07-29T14:37:05;51.60;25.50
64561;DHT22;50960;46.838;16.838;2023-07-29T14:39:31;51.60;23.90
64561;DHT22;50960;46.838;16.838;2023-07-29T14:41:57;51.10;24.70
64561;DHT22;50960;46.838;16.838;2023-07-29T14:44:24;48.50;24.90
64561;DHT22;50960;46.838;16.838;2023-07-29T14:46:50;43.10;26.70
64561;DHT22;50960;46.838;16.838;2023-07-29T14:51:43;42.10;28.80
64561;DHT22;50960;46.838;16.838;2023-07-29T14:56:40;42.70;28.90
64561;DHT22;50960;46.838;16.838;2023-07-29T14:59:07;42.70;29.80
64561;DHT22;50960;46.838;16.838;2023-07-29T15:01:33;42.90;29.90
64561;DHT22;50960;46.838;16.838;2023-07-29T15:04:00;43.10;29.00
64561;DHT22;50960;46.838;16.838;2023-07-29T15:06:26;47.50;27.70
64561;DHT22;50960;46.838;16.838;2023-07-29T15:08:52;47.30;25.70
64561;DHT22;50960;46.838;16.838;2023-07-29T15:11:19;45.30;26.90
64561;DHT22;50960;46.838;16.838;2023-07-29T15:13:45;42.10;28.10
64561;DHT22;50960;46.838;16.838;2023-07-29T15:16:12;40.20;30.00
64561;DHT22;50960;46.838;16.838;2023-07-29T15:18:38;39.70;30.60
64561;DHT22;50960;46.838;16.838;2023-07-29T15:21:04;38.20;32.30
64561;DHT22;50960;46.838;16.838;2023-07-29T15:23:31;34.40;35.40
64561;DHT22;50960;46.838;16.838;2023-07-29T15:25:57;31.70;39.50
64561;DHT22;50960;46.838;16.838;2023-07-29T15:28:25;31.70;40.30
64561;DHT22;50960;46.838;16.838;2023-07-29T15:30:52;29.40;44.10
64561;DHT22;50960;46.838;16.838;2023-07-29T15:33:19;29.20;44.50
64561;DHT22;50960;46.838;16.838;2023-07-29T15:35:46;29.10;61.50
64561;DHT22;50960;46.838;16.838;2023-07-29T15:38:14;30.20;44.90
64561;DHT22;50960;46.838;16.838;2023-07-29T15:40:41;29.70;45.60
64561;DHT22;50960;46.838;16.838;2023-07-29T15:43:07;30.90;44.00
64561;DHT22;50960;46.838;16.838;2023-07-29T15:45:34;30.80;43.00
64561;DHT22;50960;46.838;16.838;2023-07-29T15:48:01;31.30;42.20
64561;DHT22;50960;46.838;16.838;2023-07-29T15:50:28;30.90;42.60
64561;DHT22;50960;46.838;16.838;2023-07-29T15:52:55;30.40;44.70
64561;DHT22;50960;46.838;16.838;2023-07-29T15:55:22;30.50;44.50
64561;DHT22;50960;46.838;16.838;2023-07-29T15:57:49;30.20;45.30
64561;DHT22;50960;46.838;16.838;2023-07-29T16:00:16;30.80;44.70
64561;DHT22;50960;46.838;16.838;2023-07-29T16:02:42;30.60;45.70
64561;DHT22;50960;46.838;16.838;2023-07-29T16:05:09;30.40;46.30
64561;DHT22;50960;46.838;16.838;2023-07-29T16:07:35;30.30;46.30
64561;DHT22;50960;46.838;16.838;2023-07-29T16:10:02;30.60;45.30
64561;DHT22;50960;46.838;16.838;2023-07-29T16:12:28;31.50;45.00
64561;DHT22;50960;46.838;16.838;2023-07-29T16:14:56;34.10;41.10
64561;DHT22;50960;46.838;16.838;2023-07-29T16:17:22;34.00;39.50
64561;DHT22;50960;46.838;16.838;2023-07-29T16:19:54;33.70;40.50
64561;DHT22;50960;46.838;16.838;2023-07-29T16:22:21;36.20;39.50
64561;DHT22;50960;46.838;16.838;2023-07-29T16:24:48;36.30;37.80
64561;DHT22;50960;46.838;16.838;2023-07-29T16:27:15;36.30;37.00
64561;DHT22;50960;46.838;16.838;2023-07-29T16:29:41;37.00;35.90
64561;DHT22;50960;46.838;16.838;2023-07-29T16:32:08;37.90;34.70
64561;DHT22;50960;46.838;16.838;2023-07-29T16:34:35;37.70;32.80
64561;DHT22;50960;46.838;16.838;2023-07-29T16:37:01;37.20;34.30
64561;DHT22;50960;46.838;16.838;2023-07-29T16:39:28;38.00;34.70
64561;DHT22;50960;46.838;16.838;2023-07-29T16:41:54;39.60;31.90
64561;DHT22;50960;46.838;16.838;2023-07-29T16:44:21;41.90;30.60
64561;DHT22;50960;46.838;16.838;2023-07-29T16:46:47;44.60;28.10
64561;DHT22;50960;46.838;16.838;2023-07-29T16:49:14;46.10;26.60
64561;DHT22;50960;46.838;16.838;2023-07-29T16:51:40;46.50;26.10
64561;DHT22;50960;46.838;16.838;2023-07-29T16:54:07;48.60;25.70
64561;DHT22;50960;46.838;16.838;2023-07-29T16:56:33;49.40;24.70
64561;DHT22;50960;46.838;16.838;2023-07-29T16:58:59;49.90;24.20
64561;DHT22;50960;46.838;16.838;2023-07-29T17:01:26;49.60;24.40
64561;DHT22;50960;46.838;16.838;2023-07-29T17:03:52;50.90;23.80
64561;DHT22;50960;46.838;16.838;2023-07-29T17:06:19;50.10;23.50
64561;DHT22;50960;46.838;16.838;2023-07-29T17:08:45;49.70;23.20
64561;DHT22;50960;46.838;16.838;2023-07-29T17:11:12;50.70;23.40
64561;DHT22;50960;46.838;16.838;2023-07-29T17:13:38;51.10;23.40
64561;DHT22;50960;46.838;16.838;2023-07-29T17:16:05;51.50;23.10
64561;DHT22;50960;46.838;16.838;2023-07-29T17:18:31;52.20;22.70
64561;DHT22;50960;46.838;16.838;2023-07-29T17:20:59;52.10;22.30